Time;durP1;ratioP1;P1;durP2;ratioP2;P2;SDS_P1;SDS_P2;PMS_P1;PMS_P2;Temp;Humidity;BMP_temperature;BMP_pressure;BME280_temperature;BME280_humidity;BME280_pressure;Samples;Min_cycle;Max_cycle;Signal;HPM_P1;HPM_P2
2023/05/26 00:00:53;;;;;;;27.73;7.43;;;;;;;10.07;100.00;102696.66;5268898;28;20490;-66
2023/05/26 00:03:27;;;;;;;28.38;6.40;;;;;;;9.98;100.00;102701.47;5265433;28;20067;-65
2023/05/26 00:05:59;;;;;;;29.27;6.40;;;;;;;10.08;100.00;102696.59;5264375;28;20695;-66
2023/05/26 00:08:30;;;;;;;26.10;6.10;;;;;;;9.96;100.00;102702.47;5263310;28;20032;-65
2023/05/26 00:11:02;;;;;;;25.80;5.72;;;;;;;9.89;100.00;102704.53;5263873;28;20036;-65
2023/05/26 00:13:34;;;;;;;24.45;5.18;;;;;;;9.81;100.00;102702.19;5263789;28;20086;-65
2023/05/26 00:16:06;;;;;;;27.58;6.13;;;;;;;9.79;100.00;102709.41;5263925;28;20024;-66
2023/05/26 00:18:37;;;;;;;28.00;6.13;;;;;;;9.72;100.00;102709.72;5262726;28;20032;-65
2023/05/26 00:21:08;;;;;;;23.65;6.53;;;;;;;9.76;100.00;102719.31;5260114;28;20107;-66
2023/05/26 00:23:40;;;;;;;25.40;5.65;;;;;;;9.71;100.00;102716.00;5260870;28;20024;-66
2023/05/26 00:26:11;;;;;;;25.15;6.43;;;;;;;9.64;100.00;102712.72;5268145;28;20472;-65
2023/05/26 00:28:42;;;;;;;20.60;5.75;;;;;;;9.65;100.00;102719.78;5264992;28;20119;-66
2023/05/26 00:31:14;;;;;;;26.17;6.30;;;;;;;9.59;100.00;102718.25;5269503;28;20020;-65
2023/05/26 00:33:45;;;;;;;25.65;6.50;;;;;;;9.54;100.00;102717.56;5269118;28;20402;-65
2023/05/26 00:36:17;;;;;;;24.38;6.10;;;;;;;9.53;100.00;102733.63;5266393;28;20056;-65
2023/05/26 00:38:48;;;;;;;23.65;6.30;;;;;;;9.49;100.00;102727.59;5273399;28;20033;-65
2023/05/26 00:41:19;;;;;;;21.40;6.22;;;;;;;9.49;100.00;102719.59;5268658;28;20467;-65
2023/05/26 00:43:51;;;;;;;32.65;7.10;;;;;;;9.46;100.00;102726.84;5271541;28;20398;-65
2023/05/26 00:46:22;;;;;;;26.92;6.40;;;;;;;9.44;100.00;102731.38;5272586;28;20536;-66
2023/05/26 00:48:54;;;;;;;28.15;6.63;;;;;;;9.39;100.00;102723.53;5278561;28;20055;-65
2023/05/26 00:51:25;;;;;;;21.27;6.32;;;;;;;9.40;100.00;102725.28;5283540;28;20387;-65
2023/05/26 00:53:57;;;;;;;34.72;7.65;;;;;;;9.38;100.00;102728.00;5272793;28;20100;-66
2023/05/26 00:56:31;;;;;;;23.45;6.65;;;;;;;9.43;100.00;102730.47;5268625;28;20059;-65
2023/05/26 00:59:03;;;;;;;;;;;;;;;9.48;100.00;102727.63;5271406;28;20024;-66
2023/05/26 01:01:34;;;;;;;23.63;5.45;;;;;;;9.41;100.00;102724.34;5263029;28;19923;-65
2023/05/26 01:04:06;;;;;;;23.83;6.30;;;;;;;9.32;100.00;102722.06;5268062;28;20020;-65
2023/05/26 01:06:38;;;;;;;24.40;5.78;;;;;;;9.26;100.00;102722.31;5271571;28;20120;-65
2023/05/26 01:09:09;;;;;;;22.10;6.20;;;;;;;9.18;100.00;102728.81;5264764;28;20072;-65
2023/05/26 01:11:45;;;;;;;26.98;6.63;;;;;;;9.15;100.00;102733.41;5266117;28;20021;-65
2023/05/26 01:14:40;;;;;;;22.77;6.38;;;;;;;9.12;100.00;102738.84;5263783;28;20043;-66
2023/05/26 01:17:18;;;;;;;27.90;6.32;;;;;;;9.09;100.00;102742.53;5266612;28;20024;-65
2023/05/26 01:20:03;;;;;;;22.85;6.22;;;;;;;9.10;100.00;102738.06;5266628;28;20032;-65
2023/05/26 01:22:48;;;;;;;26.42;6.63;;;;;;;9.05;100.00;102737.34;5264754;28;20167;-65
2023/05/26 01:25:44;;;;;;;20.70;6.07;;;;;;;9.01;100.00;102742.81;5263685;28;20499;-65
2023/05/26 01:28:19;;;;;;;24.65;6.63;;;;;;;9.03;100.00;102740.06;5267958;28;20158;-66
2023/05/26 01:30:51;;;;;;;23.50;6.20;;;;;;;9.01;100.00;102741.94;5263829;28;20451;-65
2023/05/26 01:33:23;;;;;;;24.23;7.15;;;;;;;9.02;100.00;102741.88;5267322;28;20366;-65
2023/05/26 01:35:54;;;;;;;29.85;6.88;;;;;;;8.96;100.00;102743.94;5274901;28;20020;-65
2023/05/26 01:38:26;;;;;;;24.15;5.85;;;;;;;8.91;100.00;102738.75;5269625;28;20060;-67
2023/05/26 01:41:33;;;;;;;26.63;6.03;;;;;;;8.98;100.00;102744.72;5272205;28;20035;-65
2023/05/26 01:44:21;;;;;;;27.00;5.78;;;;;;;8.93;100.00;102738.72;5268910;28;20043;-65
2023/05/26 01:46:52;;;;;;;22.85;5.88;;;;;;;8.94;100.00;102743.97;5275417;28;20386;-65
2023/05/26 01:49:28;;;;;;;25.02;5.57;;;;;;;8.92;100.00;102743.19;5274660;28;20044;-65
2023/05/26 01:52:03;;;;;;;27.65;6.53;;;;;;;8.92;100.00;102747.66;5266547;28;20085;-65
2023/05/26 01:54:45;;;;;;;27.58;6.22;;;;;;;8.90;100.00;102739.72;5269581;28;20028;-65
2023/05/26 01:57:17;;;;;;;26.48;5.88;;;;;;;8.96;100.00;102739.47;5275301;28;20107;-65
2023/05/26 01:59:48;;;;;;;24.58;6.05;;;;;;;8.95;100.00;102748.38;5268736;28;20878;-65
2023/05/26 02:02:19;;;;;;;26.38;5.43;;;;;;;8.82;100.00;102753.31;5271914;28;20032;-66
2023/05/26 02:04:51;;;;;;;24.50;5.32;;;;;;;8.85;100.00;102749.66;5268610;28;20057;-65
2023/05/26 02:07:22;;;;;;;26.63;6.13;;;;;;;8.82;100.00;102748.00;5270179;28;20028;-65
2023/05/26 02:09:54;;;;;;;18.23;5.10;;;;;;;8.80;100.00;102744.53;5264837;28;20154;-65
2023/05/26 02:12:25;;;;;;;28.85;5.80;;;;;;;8.73;100.00;102752.81;5264502;28;20445;-65
2023/05/26 02:14:56;;;;;;;26.83;5.90;;;;;;;8.68;100.00;102744.97;5263985;28;20032;-64
2023/05/26 02:17:28;;;;;;;27.45;5.93;;;;;;;8.78;100.00;102748.16;5281237;28;20020;-65
2023/05/26 02:20:00;;;;;;;24.38;6.22;;;;;;;8.71;100.00;102757.31;5263501;28;20116;-65
2023/05/26 02:22:31;;;;;;;20.90;5.55;;;;;;;8.66;100.00;102751.28;5265924;28;20021;-65
2023/05/26 02:25:03;;;;;;;24.85;5.25;;;;;;;8.60;100.00;102752.38;5264284;28;20028;-65
2023/05/26 02:27:34;;;;;;;22.60;5.65;;;;;;;8.70;100.00;102764.41;5264369;28;20039;-64
2023/05/26 02:30:06;;;;;;;33.63;6.47;;;;;;;8.57;100.00;102763.13;5260464;28;20161;-65
2023/05/26 02:32:37;;;;;;;25.48;6.13;;;;;;;8.59;100.00;102761.28;5272902;28;20043;-65
2023/05/26 02:35:09;;;;;;;26.58;5.97;;;;;;;8.60;100.00;102753.25;5280099;28;20024;-65
2023/05/26 02:37:42;;;;;;;24.83;6.55;;;;;;;8.57;100.00;102758.69;5264199;28;20033;-65
2023/05/26 02:40:13;;;;;;;24.83;6.18;;;;;;;8.50;100.00;102764.31;5262141;28;20062;-65
2023/05/26 02:42:45;;;;;;;24.75;5.15;;;;;;;8.44;100.00;102747.63;5267929;28;20029;-65
2023/05/26 02:45:16;;;;;;;23.33;5.78;;;;;;;8.41;100.00;102754.84;5265228;28;20024;-65
2023/05/26 02:47:47;;;;;;;30.83;7.03;;;;;;;8.38;100.00;102754.94;5269112;28;20080;-65
2023/05/26 02:50:19;;;;;;;25.40;5.72;;;;;;;8.34;100.00;102751.53;5268252;28;20070;-65
2023/05/26 02:52:50;;;;;;;23.83;5.18;;;;;;;8.36;100.00;102749.69;5269378;28;20433;-65
2023/05/26 02:55:24;;;;;;;33.00;7.07;;;;;;;8.42;100.00;102748.63;5262272;28;20017;-65
2023/05/26 02:57:56;;;;;;;30.92;5.65;;;;;;;8.31;100.00;102745.47;5261994;28;20047;-65
2023/05/26 03:00:27;;;;;;;25.98;5.57;;;;;;;8.28;100.00;102746.41;5269573;28;20020;-65
2023/05/26 03:03:00;;;;;;;35.00;6.47;;;;;;;8.24;100.00;102756.28;5266095;28;20537;-65
2023/05/26 03:05:32;;;;;;;30.10;6.78;;;;;;;8.26;100.00;102761.56;5269611;28;20055;-66
2023/05/26 03:08:03;;;;;;;23.38;5.47;;;;;;;8.25;100.00;102759.84;5265783;28;20032;-65
2023/05/26 03:10:35;;;;;;;25.10;5.45;;;;;;;8.36;100.00;102757.66;5270382;28;20099;-65
2023/05/26 03:13:06;;;;;;;26.05;6.05;;;;;;;8.22;100.00;102759.94;5265777;28;20032;-65
2023/05/26 03:15:38;;;;;;;27.10;5.75;;;;;;;8.21;100.00;102758.22;5261943;28;20029;-65
2023/05/26 03:18:10;;;;;;;25.80;6.07;;;;;;;8.11;100.00;102751.47;5260438;28;20032;-66
2023/05/26 03:20:43;;;;;;;29.63;5.90;;;;;;;8.24;100.00;102763.41;5264571;28;20035;-65
2023/05/26 03:23:17;;;;;;;29.58;6.35;;;;;;;8.14;100.00;102764.69;5261410;28;20181;-65
2023/05/26 03:25:49;;;;;;;25.05;5.55;;;;;;;8.09;100.00;102770.13;5264159;28;20025;-65
2023/05/26 03:28:20;;;;;;;25.85;5.50;;;;;;;8.08;100.00;102768.41;5263241;28;20674;-65
2023/05/26 03:30:52;;;;;;;28.55;6.15;;;;;;;8.05;100.00;102761.44;5262350;28;20662;-65
2023/05/26 03:33:23;;;;;;;29.48;6.05;;;;;;;8.01;100.00;102770.41;5264602;28;20397;-66
2023/05/26 03:35:55;;;;;;;23.63;6.20;;;;;;;7.97;100.00;102771.44;5263257;28;20016;-65
2023/05/26 03:38:27;;;;;;;23.08;5.90;;;;;;;7.96;100.00;102771.50;5264496;28;20348;-65
2023/05/26 03:40:58;;;;;;;27.95;5.80;;;;;;;8.00;100.00;102778.47;5262963;28;20512;-65
2023/05/26 03:43:30;;;;;;;29.35;6.57;;;;;;;7.95;100.00;102783.91;5261684;28;20027;-65
2023/05/26 03:46:01;;;;;;;25.38;5.55;;;;;;;8.03;100.00;102786.31;5263627;28;20025;-65
2023/05/26 03:48:32;;;;;;;27.25;5.38;;;;;;;8.00;100.00;102787.28;5270861;28;20031;-65
2023/05/26 03:51:04;;;;;;;25.58;5.78;;;;;;;7.98;100.00;102797.13;5262752;28;20474;-65
2023/05/26 03:53:36;;;;;;;27.08;6.05;;;;;;;7.96;100.00;102787.47;5264139;28;20371;-65
2023/05/26 03:56:08;;;;;;;24.58;5.35;;;;;;;7.92;100.00;102796.44;5268051;28;20030;-65
2023/05/26 03:58:39;;;;;;;31.50;6.82;;;;;;;7.91;100.00;102792.91;5263609;28;20020;-66
2023/05/26 04:01:10;;;;;;;26.90;5.72;;;;;;;7.90;100.00;102791.19;5267636;28;20029;-65
2023/05/26 04:03:42;;;;;;;24.58;6.63;;;;;;;7.98;100.00;102794.44;5268493;28;20055;-66
2023/05/26 04:06:13;;;;;;;28.75;6.18;;;;;;;7.95;100.00;102789.22;5268611;28;20459;-66
2023/05/26 04:08:47;;;;;;;23.92;5.88;;;;;;;7.92;100.00;102796.44;5264655;28;20504;-65
2023/05/26 04:11:18;;;;;;;31.92;6.70;;;;;;;7.99;100.00;102788.19;5264820;28;20044;-66
2023/05/26 04:13:50;;;;;;;31.52;6.35;;;;;;;7.87;100.00;102793.94;5261081;28;20060;-65
2023/05/26 04:16:21;;;;;;;29.83;6.60;;;;;;;7.81;100.00;102789.69;5260242;28;20052;-65
2023/05/26 04:18:52;;;;;;;26.05;6.38;;;;;;;7.82;100.00;102795.88;5262862;28;20115;-65
2023/05/26 04:21:24;;;;;;;27.52;6.20;;;;;;;7.80;100.00;102795.06;5258665;28;20025;-65
2023/05/26 04:23:56;;;;;;;28.08;6.40;;;;;;;7.82;100.00;102806.50;5257758;28;20025;-65
2023/05/26 04:26:33;;;;;;;28.15;6.30;;;;;;;7.78;100.00;102804.88;5262603;28;20081;-66
2023/05/26 04:29:04;;;;;;;27.55;7.00;;;;;;;7.76;100.00;102802.25;5263613;28;20036;-65
2023/05/26 04:31:40;;;;;;;22.70;6.00;;;;;;;7.81;100.00;102805.66;5257102;28;20518;-65
2023/05/26 04:34:12;;;;;;;28.58;6.05;;;;;;;7.75;100.00;102802.34;5258296;28;20532;-65
2023/05/26 04:36:44;;;;;;;25.17;6.88;;;;;;;7.79;100.00;102802.19;5263116;28;20024;-66
2023/05/26 04:39:15;;;;;;;28.33;6.03;;;;;;;7.77;100.00;102808.47;5264757;28;20025;-65
2023/05/26 04:41:47;;;;;;;22.23;6.25;;;;;;;7.89;100.00;102816.03;5261946;28;20667;-65
2023/05/26 04:44:18;;;;;;;30.95;7.20;;;;;;;7.75;100.00;102815.63;5267653;28;20040;-65
2023/05/26 04:46:50;;;;;;;25.75;6.88;;;;;;;7.72;100.00;102808.59;5261750;28;20025;-65
2023/05/26 04:49:23;;;;;;;33.75;7.18;;;;;;;7.66;100.00;102800.84;5268901;28;20037;-65
2023/05/26 04:51:58;;;;;;;30.73;7.35;;;;;;;7.72;100.00;102810.41;5264502;28;20035;-65
2023/05/26 04:54:30;;;;;;;27.13;6.68;;;;;;;7.70;100.00;102817.56;5264601;28;20082;-64
2023/05/26 04:57:01;;;;;;;28.15;6.72;;;;;;;7.72;100.00;102821.03;5264481;28;20032;-66
2023/05/26 04:59:33;;;;;;;33.55;7.95;;;;;;;7.75;100.00;102815.63;5271524;28;20028;-65
2023/05/26 05:02:04;;;;;;;31.42;7.07;;;;;;;7.74;100.00;102819.19;5266976;28;20029;-66
2023/05/26 05:04:36;;;;;;;31.73;6.55;;;;;;;7.82;100.00;102822.44;5269886;28;20044;-65
2023/05/26 05:07:08;;;;;;;37.45;7.45;;;;;;;7.80;100.00;102825.16;5270789;28;20280;-66
2023/05/26 05:09:39;;;;;;;29.17;6.75;;;;;;;7.88;100.00;102830.25;5266156;28;20159;-65
2023/05/26 05:12:10;;;;;;;28.48;7.25;;;;;;;7.92;100.00;102828.31;5270748;28;20367;-65
2023/05/26 05:14:42;;;;;;;28.98;7.22;;;;;;;7.95;100.00;102828.25;5270969;28;20371;-65
2023/05/26 05:17:13;;;;;;;24.58;7.38;;;;;;;8.04;100.00;102823.47;5265983;28;20029;-65
2023/05/26 05:19:44;;;;;;;29.98;7.35;;;;;;;8.02;100.00;102827.97;5274034;28;20047;-65
2023/05/26 05:22:16;;;;;;;25.20;6.20;;;;;;;8.05;100.00;102825.22;5264936;28;20032;-65
2023/05/26 05:24:47;;;;;;;26.38;7.30;;;;;;;8.20;100.00;102821.16;5267537;28;20039;-65
2023/05/26 05:27:19;;;;;;;27.80;7.80;;;;;;;8.18;100.00;102830.13;5271521;28;20032;-65
2023/05/26 05:29:50;;;;;;;32.53;8.43;;;;;;;8.22;100.00;102829.09;5272044;28;20017;-65
2023/05/26 05:32:22;;;;;;;33.20;7.68;;;;;;;8.30;100.00;102829.69;5269557;28;20027;-65
2023/05/26 05:34:55;;;;;;;30.95;7.97;;;;;;;8.36;100.00;102839.22;5269860;28;20477;-65
2023/05/26 05:37:26;;;;;;;29.67;7.05;;;;;;;8.37;100.00;102835.66;5274757;28;20032;-65
2023/05/26 05:39:57;;;;;;;37.58;9.65;;;;;;;8.45;100.00;102833.63;5268585;28;20040;-65
2023/05/26 05:42:29;;;;;;;29.23;7.03;;;;;;;8.47;100.00;102831.78;5271405;28;20025;-65
2023/05/26 05:45:00;;;;;;;28.48;7.13;;;;;;;8.54;100.00;102824.47;5271610;28;20044;-65
2023/05/26 05:47:32;;;;;;;30.50;6.63;;;;;;;8.54;100.00;102830.63;5269959;28;20502;-65
2023/05/26 05:50:04;;;;;;;25.27;6.22;;;;;;;8.61;100.00;102833.94;5269216;28;20032;-65
2023/05/26 05:52:35;;;;;;;29.83;7.10;;;;;;;8.69;100.00;102839.00;5266291;28;20029;-65
2023/05/26 05:55:07;;;;;;;35.50;7.88;;;;;;;8.77;100.00;102836.94;5271512;28;20031;-65
2023/05/26 05:57:38;;;;;;;27.70;6.97;;;;;;;8.85;100.00;102839.31;5266881;28;20048;-65
2023/05/26 06:00:11;;;;;;;30.20;6.22;;;;;;;8.91;100.00;102849.72;5271179;28;20032;-65
2023/05/26 06:02:42;;;;;;;34.17;6.65;;;;;;;8.94;100.00;102844.28;5270537;28;20462;-65
2023/05/26 06:05:13;;;;;;;33.00;6.65;;;;;;;9.04;100.00;102848.34;5275750;28;20056;-65
2023/05/26 06:07:45;;;;;;;25.52;6.72;;;;;;;9.10;100.00;102849.91;5277266;28;20371;-66
2023/05/26 06:10:16;;;;;;;27.00;6.28;;;;;;;9.20;100.00;102857.50;5270552;28;20021;-65
2023/05/26 06:12:47;;;;;;;24.10;6.30;;;;;;;9.26;100.00;102856.34;5265999;28;20128;-66
2023/05/26 06:15:19;;;;;;;25.08;6.20;;;;;;;9.30;100.00;102855.34;5270141;28;20025;-65
2023/05/26 06:17:50;;;;;;;25.33;6.47;;;;;;;9.37;100.00;102866.59;5265433;28;20044;-65
2023/05/26 06:20:22;;;;;;;30.48;7.57;;;;;;;9.48;100.00;102863.53;5269838;28;20026;-66
2023/05/26 06:22:53;;;;;;;32.38;7.32;;;;;;;9.58;100.00;102864.88;5270644;28;20040;-65
2023/05/26 06:25:24;;;;;;;24.70;5.93;;;;;;;9.67;100.00;102856.53;5277663;28;20078;-65
2023/05/26 06:27:56;;;;;;;27.58;6.88;;;;;;;9.79;100.00;102860.50;5266799;28;20044;-65
2023/05/26 06:30:27;;;;;;;23.70;5.93;;;;;;;9.84;100.00;102866.50;5273154;28;20032;-66
2023/05/26 06:32:59;;;;;;;23.58;5.82;;;;;;;9.89;100.00;102866.31;5272905;28;20108;-65
2023/05/26 06:35:30;;;;;;;30.08;6.43;;;;;;;9.96;100.00;102868.66;5269252;28;20108;-65
2023/05/26 06:38:01;;;;;;;21.83;6.32;;;;;;;10.05;100.00;102863.88;5274557;28;20016;-65
2023/05/26 06:40:33;;;;;;;25.85;5.65;;;;;;;10.09;100.00;102865.50;5268605;28;20157;-66
2023/05/26 06:43:04;;;;;;;27.38;7.10;;;;;;;10.12;100.00;102860.03;5273379;28;20032;-65
2023/05/26 06:45:35;;;;;;;22.67;5.68;;;;;;;10.20;100.00;102853.44;5264069;28;20114;-66
2023/05/26 06:48:07;;;;;;;28.88;7.03;;;;;;;10.24;100.00;102864.84;5265131;28;20044;-65
2023/05/26 06:50:38;;;;;;;22.73;6.25;;;;;;;10.31;100.00;102865.47;5266109;28;20037;-65
2023/05/26 06:53:10;;;;;;;26.88;6.53;;;;;;;10.37;100.00;102859.88;5269252;28;20525;-65
2023/05/26 06:55:41;;;;;;;27.25;6.75;;;;;;;10.45;100.00;102864.88;5270378;28;20032;-65
2023/05/26 06:58:12;;;;;;;27.75;5.57;;;;;;;10.55;100.00;102863.56;5267693;28;20442;-65
2023/05/26 07:01:00;;;;;;;24.30;6.47;;;;;;;10.61;100.00;102855.28;5267586;28;20040;-65
2023/05/26 07:03:31;;;;;;;22.33;5.90;;;;;;;10.74;100.00;102863.59;5267390;28;20024;-65
2023/05/26 07:06:03;;;;;;;24.58;5.72;;;;;;;10.74;100.00;102869.81;5272082;28;20403;-66
2023/05/26 07:08:34;;;;;;;21.52;6.68;;;;;;;10.79;100.00;102874.94;5268417;28;20024;-65
2023/05/26 07:11:06;;;;;;;29.90;6.30;;;;;;;10.84;100.00;102864.91;5272078;28;20205;-65
2023/05/26 07:13:38;;;;;;;26.15;6.03;;;;;;;10.99;100.00;102861.53;5271259;28;20043;-65
2023/05/26 07:16:09;;;;;;;23.40;5.82;;;;;;;11.04;100.00;102864.00;5269779;28;20024;-66
2023/05/26 07:18:41;;;;;;;21.70;5.60;;;;;;;11.12;100.00;102861.84;5272007;28;20504;-65
2023/05/26 07:21:12;;;;;;;25.85;5.35;;;;;;;11.26;100.00;102871.88;5273563;28;20032;-65
2023/05/26 07:23:44;;;;;;;28.10;6.95;;;;;;;11.36;100.00;102862.50;5270783;28;20036;-65
2023/05/26 07:26:15;;;;;;;27.52;6.53;;;;;;;11.40;100.00;102863.22;5272632;28;20162;-65
2023/05/26 07:28:48;;;;;;;29.45;6.78;;;;;;;11.53;100.00;102859.00;5267851;28;20036;-65
2023/05/26 07:31:19;;;;;;;23.05;6.35;;;;;;;11.58;100.00;102869.47;5268162;28;20033;-65
2023/05/26 07:33:51;;;;;;;26.13;6.10;;;;;;;11.73;100.00;102865.19;5270083;28;20071;-65
2023/05/26 07:36:22;;;;;;;26.08;6.15;;;;;;;11.74;100.00;102859.78;5274250;28;20059;-65
2023/05/26 07:38:53;;;;;;;23.38;5.80;;;;;;;11.86;100.00;102863.66;5273079;28;20025;-65
2023/05/26 07:41:25;;;;;;;30.88;6.65;;;;;;;11.90;100.00;102862.59;5270723;28;20029;-65
2023/05/26 07:43:56;;;;;;;20.50;5.75;;;;;;;12.05;100.00;102866.31;5271581;28;20030;-65
2023/05/26 07:46:28;;;;;;;29.45;5.97;;;;;;;12.20;100.00;102863.81;5271785;28;20479;-65
2023/05/26 07:49:00;;;;;;;23.95;5.72;;;;;;;12.26;100.00;102860.81;5270000;28;20024;-65
2023/05/26 07:51:32;;;;;;;21.73;5.18;;;;;;;12.45;100.00;102858.06;5270583;28;20474;-66
2023/05/26 07:54:04;;;;;;;23.33;4.80;;;;;;;12.45;100.00;102863.41;5272903;28;20047;-65
2023/05/26 07:56:35;;;;;;;28.08;6.57;;;;;;;12.46;100.00;102854.41;5262748;28;20035;-65
2023/05/26 07:59:07;;;;;;;25.88;5.95;;;;;;;12.51;100.00;102861.25;5272770;28;20078;-65
2023/05/26 08:01:38;;;;;;;23.35;5.75;;;;;;;12.65;100.00;102865.88;5271758;28;20023;-65
2023/05/26 08:04:10;;;;;;;22.95;6.18;;;;;;;12.74;100.00;102870.75;5269956;28;20387;-65
2023/05/26 08:06:41;;;;;;;20.23;5.63;;;;;;;12.74;100.00;102869.91;5265572;28;20033;-65
2023/05/26 08:09:13;;;;;;;24.58;5.80;;;;;;;12.70;100.00;102869.19;5272459;28;20104;-65
2023/05/26 08:11:44;;;;;;;22.98;5.20;;;;;;;12.71;100.00;102868.25;5271946;28;20032;-65
2023/05/26 08:14:15;;;;;;;22.88;6.07;;;;;;;12.70;100.00;102865.66;5270265;28;20115;-65
2023/05/26 08:16:47;;;;;;;20.35;5.53;;;;;;;12.75;100.00;102882.34;5269329;28;20086;-65
2023/05/26 08:19:18;;;;;;;27.08;5.38;;;;;;;12.80;100.00;102871.38;5274076;28;20393;-65
2023/05/26 08:21:50;;;;;;;19.50;5.50;;;;;;;12.95;100.00;102868.75;5271475;28;20039;-65
2023/05/26 08:24:23;;;;;;;21.95;5.95;;;;;;;13.06;100.00;102867.28;5273833;28;20021;-64
2023/05/26 08:26:54;;;;;;;22.20;5.97;;;;;;;13.05;100.00;102862.88;5269311;28;20032;-64
2023/05/26 08:29:25;;;;;;;22.02;5.72;;;;;;;13.12;100.00;102858.94;5270800;28;20032;-65
2023/05/26 08:31:57;;;;;;;21.17;6.22;;;;;;;13.09;100.00;102862.63;5271429;28;20483;-64
2023/05/26 08:34:28;;;;;;;17.98;6.03;;;;;;;13.23;100.00;102869.03;5273589;28;20089;-65
2023/05/26 08:36:59;;;;;;;18.92;5.45;;;;;;;13.30;100.00;102865.09;5269218;28;20126;-65
2023/05/26 08:39:31;;;;;;;21.95;5.10;;;;;;;13.39;100.00;102859.25;5267425;28;20494;-65
2023/05/26 08:42:10;;;;;;;23.30;4.85;;;;;;;13.43;100.00;102859.94;5270266;28;20098;-65
2023/05/26 08:44:44;;;;;;;19.48;5.10;;;;;;;13.45;100.00;102864.25;5267934;28;20037;-65
2023/05/26 08:47:17;;;;;;;18.90;5.53;;;;;;;13.53;100.00;102863.81;5270525;28;20027;-65
2023/05/26 08:50:00;;;;;;;19.65;5.00;;;;;;;13.59;100.00;102858.09;5267799;28;20148;-65
2023/05/26 08:52:32;;;;;;;16.33;4.93;;;;;;;13.64;100.00;102860.53;5267687;28;20036;-65
2023/05/26 08:55:05;;;;;;;18.58;5.28;;;;;;;13.76;100.00;102851.75;5272850;28;20225;-65
2023/05/26 08:57:38;;;;;;;15.95;4.55;;;;;;;13.82;100.00;102859.44;5269816;28;20029;-65
2023/05/26 09:00:12;;;;;;;17.02;5.68;;;;;;;13.82;100.00;102859.44;5262908;28;20028;-65
2023/05/26 09:02:44;;;;;;;22.38;5.18;;;;;;;13.92;100.00;102857.09;5268556;28;20055;-64
2023/05/26 09:05:16;;;;;;;19.08;4.85;;;;;;;14.07;100.00;102855.34;5271943;28;20051;-65
2023/05/26 09:07:47;;;;;;;20.00;5.32;;;;;;;14.13;100.00;102857.66;5275001;28;20029;-65
2023/05/26 09:10:22;;;;;;;21.48;5.43;;;;;;;14.25;100.00;102862.31;5275740;28;20036;-65
2023/05/26 09:13:15;;;;;;;17.13;4.25;;;;;;;14.34;100.00;102855.50;5274409;28;21418;-65
2023/05/26 09:15:54;;;;;;;15.63;4.82;;;;;;;14.36;100.00;102853.59;5277804;28;20020;-65
2023/05/26 09:18:25;;;;;;;18.63;5.53;;;;;;;14.27;100.00;102859.53;5271024;28;20035;-65
2023/05/26 09:20:57;;;;;;;21.73;5.45;;;;;;;14.36;100.00;102866.16;5269618;28;20090;-65
2023/05/26 09:23:28;;;;;;;18.13;5.00;;;;;;;14.37;100.00;102859.84;5274662;28;20145;-65
2023/05/26 09:26:05;;;;;;;17.63;4.57;;;;;;;14.50;100.00;102863.50;5275683;28;20024;-65
2023/05/26 09:28:46;;;;;;;15.75;4.32;;;;;;;14.49;100.00;102870.69;5274441;28;20068;-65
2023/05/26 09:31:18;;;;;;;19.65;4.90;;;;;;;14.46;100.00;102867.34;5275901;28;20048;-64
2023/05/26 09:33:49;;;;;;;14.63;4.10;;;;;;;14.56;100.00;102859.59;5276119;28;20032;-64
2023/05/26 09:36:24;;;;;;;15.32;4.38;;;;;;;14.63;100.00;102875.28;5275199;28;20048;-65
2023/05/26 09:38:56;;;;;;;23.20;6.03;;;;;;;14.71;100.00;102869.44;5276280;28;20028;-65
2023/05/26 09:42:04;;;;;;;15.45;4.82;;;;;;;14.83;100.00;102857.91;5275960;28;20490;-65
2023/05/26 09:44:36;;;;;;;22.25;5.68;;;;;;;14.94;100.00;102867.09;5250027;28;20063;-65
2023/05/26 09:47:08;;;;;;;17.85;4.63;;;;;;;15.03;100.00;102861.16;5273398;28;20033;-65
2023/05/26 09:49:39;;;;;;;20.80;5.03;;;;;;;15.04;100.00;102861.06;5273777;28;20039;-65
2023/05/26 09:52:11;;;;;;;16.45;5.05;;;;;;;15.05;100.00;102854.75;5273466;28;20041;-65
2023/05/26 09:54:42;;;;;;;17.73;5.18;;;;;;;15.11;100.00;102866.94;5274308;28;20029;-65
2023/05/26 09:57:15;;;;;;;20.17;5.40;;;;;;;15.22;100.00;102856.34;5269509;28;20368;-65
2023/05/26 09:59:52;;;;;;;15.48;4.60;;;;;;;15.32;100.00;102853.06;5275446;28;20027;-65
2023/05/26 10:02:25;;;;;;;20.02;5.32;;;;;;;15.43;100.00;102851.38;5270580;28;20043;-65
2023/05/26 10:04:58;;;;;;;15.27;5.13;;;;;;;15.47;100.00;102858.31;5268140;28;20053;-65
2023/05/26 10:07:30;;;;;;;18.90;4.75;;;;;;;15.49;100.00;102851.00;5271985;28;20112;-65
2023/05/26 10:10:03;;;;;;;19.48;5.10;;;;;;;15.55;100.00;102849.75;5270289;28;20494;-65
2023/05/26 10:12:35;;;;;;;19.27;4.85;;;;;;;15.63;100.00;102847.41;5272015;28;20078;-65
2023/05/26 10:15:07;;;;;;;13.50;4.35;;;;;;;15.66;100.00;102851.72;5266816;28;20040;-66
2023/05/26 10:17:39;;;;;;;19.27;4.70;;;;;;;15.68;100.00;102842.56;5269692;28;20039;-65
2023/05/26 10:20:10;;;;;;;15.82;4.72;;;;;;;15.77;100.00;102837.59;5270931;28;20455;-66
2023/05/26 10:22:50;;;;;;;15.32;4.70;;;;;;;15.77;100.00;102841.13;5270895;28;20479;-66
2023/05/26 10:25:31;;;;;;;17.30;4.82;;;;;;;15.78;100.00;102845.56;5273844;28;20672;-66
2023/05/26 10:28:21;;;;;;;15.57;4.85;;;;;;;15.80;100.00;102843.63;5271578;28;20235;-65
2023/05/26 10:31:00;;;;;;;18.15;5.03;;;;;;;15.83;100.00;102835.34;5266181;28;20114;-65
2023/05/26 10:33:39;;;;;;;16.55;5.10;;;;;;;15.84;100.00;102834.38;5271260;28;20094;-65
2023/05/26 10:36:17;;;;;;;14.13;4.55;;;;;;;15.98;100.00;102832.59;5271936;28;20139;-65
2023/05/26 10:38:51;;;;;;;15.60;5.43;;;;;;;16.06;100.00;102831.09;5271299;28;20023;-65
2023/05/26 10:41:49;;;;;;;16.67;4.80;;;;;;;16.08;100.00;102839.06;5272581;28;20047;-65
2023/05/26 10:44:40;;;;;;;15.18;4.97;;;;;;;16.16;100.00;102835.84;5270698;28;20041;-65
2023/05/26 10:47:17;;;;;;;17.02;5.10;;;;;;;16.15;97.70;102840.38;5268840;28;20707;-65
2023/05/26 10:49:57;;;;;;;15.50;4.85;;;;;;;16.17;100.00;102830.38;5273707;28;20082;-65
2023/05/26 10:52:46;;;;;;;16.48;4.43;;;;;;;16.31;100.00;102820.47;5272272;28;20139;-65
2023/05/26 10:55:31;;;;;;;14.30;4.40;;;;;;;16.39;99.56;102821.66;5268528;28;20499;-64
2023/05/26 10:58:27;;;;;;;17.67;5.20;;;;;;;16.55;100.00;102828.66;5272313;28;20040;-65
2023/05/26 11:01:04;;;;;;;13.05;4.35;;;;;;;16.59;98.64;102824.81;5266479;28;20020;-65
2023/05/26 11:03:44;;;;;;;12.82;3.83;;;;;;;16.63;96.61;102816.38;5266251;28;20408;-65
2023/05/26 11:06:31;;;;;;;13.20;4.72;;;;;;;16.75;93.28;102822.72;5273814;28;20378;-65
2023/05/26 11:09:08;;;;;;;12.20;4.55;;;;;;;16.74;93.83;102823.72;5275284;28;20048;-65
2023/05/26 11:11:57;;;;;;;16.00;4.53;;;;;;;16.74;93.12;102822.81;5272319;28;20033;-65
2023/05/26 11:14:32;;;;;;;15.30;5.05;;;;;;;16.77;94.92;102811.84;5268567;28;20075;-65
2023/05/26 11:17:04;;;;;;;14.45;4.22;;;;;;;16.82;88.47;102817.81;5273095;28;20028;-65
2023/05/26 11:19:37;;;;;;;14.65;4.30;;;;;;;16.83;86.94;102817.66;5272830;28;20426;-65
2023/05/26 11:22:10;;;;;;;16.55;4.47;;;;;;;16.92;88.36;102829.63;5269681;28;20029;-65
2023/05/26 11:24:42;;;;;;;14.93;4.28;;;;;;;16.90;84.88;102811.84;5268950;28;20115;-65
2023/05/26 11:27:13;;;;;;;15.70;4.72;;;;;;;16.86;88.60;102816.59;5270668;28;20047;-65
2023/05/26 11:29:49;;;;;;;11.05;4.40;;;;;;;16.97;90.82;102819.41;5274556;28;20028;-65
2023/05/26 11:32:20;;;;;;;15.25;3.90;;;;;;;16.98;87.92;102807.63;5272315;28;20103;-65
2023/05/26 11:34:51;;;;;;;14.40;4.60;;;;;;;17.03;84.38;102815.41;5275326;28;20183;-65
2023/05/26 11:37:25;;;;;;;16.83;4.50;;;;;;;17.05;90.49;102822.38;5269189;28;20236;-65
2023/05/26 11:39:57;;;;;;;14.55;4.38;;;;;;;17.13;90.76;102810.19;5269460;28;20017;-65
2023/05/26 11:42:29;;;;;;;13.88;4.28;;;;;;;17.05;84.52;102808.06;5270880;28;20055;-65